sensor_id;sensor_type;location;lat;lon;timestamp;temperature;humidity
25871;DHT22;13689;48.590;7.752;2024-03-25T00:01:40;7.30;80.70
25871;DHT22;13689;48.590;7.752;2024-03-25T00:04:06;7.30;80.70
25871;DHT22;13689;48.590;7.752;2024-03-25T00:06:31;7.30;80.80
25871;DHT22;13689;48.590;7.752;2024-03-25T00:09:01;7.30;80.80
25871;DHT22;13689;48.590;7.752;2024-03-25T00:11:27;7.30;80.80
25871;DHT22;13689;48.590;7.752;2024-03-25T00:13:52;7.20;80.80
25871;DHT22;13689;48.590;7.752;2024-03-25T00:16:18;7.20;80.90
25871;DHT22;13689;48.590;7.752;2024-03-25T00:18:43;7.20;81.00
25871;DHT22;13689;48.590;7.752;2024-03-25T00:21:09;7.20;81.00
25871;DHT22;13689;48.590;7.752;2024-03-25T00:23:34;7.20;81.10
25871;DHT22;13689;48.590;7.752;2024-03-25T00:26:00;7.20;81.10
25871;DHT22;13689;48.590;7.752;2024-03-25T00:28:25;7.10;81.00
25871;DHT22;13689;48.590;7.752;2024-03-25T00:30:51;7.10;81.00
25871;DHT22;13689;48.590;7.752;2024-03-25T00:33:16;7.10;81.00
25871;DHT22;13689;48.590;7.752;2024-03-25T00:35:42;7.10;81.00
25871;DHT22;13689;48.590;7.752;2024-03-25T00:38:08;7.10;81.10
25871;DHT22;13689;48.590;7.752;2024-03-25T00:40:33;7.10;80.90
25871;DHT22;13689;48.590;7.752;2024-03-25T00:42:59;7.10;81.10
25871;DHT22;13689;48.590;7.752;2024-03-25T00:45:25;7.10;81.10
25871;DHT22;13689;48.590;7.752;2024-03-25T00:47:58;7.00;81.00
25871;DHT22;13689;48.590;7.752;2024-03-25T00:50:25;7.00;81.00
25871;DHT22;13689;48.590;7.752;2024-03-25T00:52:50;6.90;81.00
25871;DHT22;13689;48.590;7.752;2024-03-25T00:55:16;6.90;81.20
25871;DHT22;13689;48.590;7.752;2024-03-25T00:57:41;6.90;81.30
25871;DHT22;13689;48.590;7.752;2024-03-25T01:00:07;6.80;81.50
25871;DHT22;13689;48.590;7.752;2024-03-25T01:02:33;6.80;82.40
25871;DHT22;13689;48.590;7.752;2024-03-25T01:04:59;6.80;81.70
25871;DHT22;13689;48.590;7.752;2024-03-25T01:07:25;6.80;81.80
25871;DHT22;13689;48.590;7.752;2024-03-25T01:09:50;6.80;81.90
25871;DHT22;13689;48.590;7.752;2024-03-25T01:12:16;6.80;81.90
25871;DHT22;13689;48.590;7.752;2024-03-25T01:14:41;6.70;81.80
25871;DHT22;13689;48.590;7.752;2024-03-25T01:17:07;6.70;82.00
25871;DHT22;13689;48.590;7.752;2024-03-25T01:19:32;6.70;82.00
25871;DHT22;13689;48.590;7.752;2024-03-25T01:21:58;6.70;82.00
25871;DHT22;13689;48.590;7.752;2024-03-25T01:24:24;6.70;82.00
25871;DHT22;13689;48.590;7.752;2024-03-25T01:26:50;6.70;82.00
25871;DHT22;13689;48.590;7.752;2024-03-25T01:29:16;6.70;82.00
25871;DHT22;13689;48.590;7.752;2024-03-25T01:31:42;6.70;82.00
25871;DHT22;13689;48.590;7.752;2024-03-25T01:34:07;6.70;81.90
25871;DHT22;13689;48.590;7.752;2024-03-25T01:36:33;6.70;81.80
25871;DHT22;13689;48.590;7.752;2024-03-25T01:38:59;6.70;82.00
25871;DHT22;13689;48.590;7.752;2024-03-25T01:41:25;6.70;82.10
25871;DHT22;13689;48.590;7.752;2024-03-25T01:43:51;6.70;82.10
25871;DHT22;13689;48.590;7.752;2024-03-25T01:46:17;6.70;82.10
25871;DHT22;13689;48.590;7.752;2024-03-25T01:48:44;6.70;82.10
25871;DHT22;13689;48.590;7.752;2024-03-25T01:51:09;6.70;82.20
25871;DHT22;13689;48.590;7.752;2024-03-25T01:53:35;6.70;82.20
25871;DHT22;13689;48.590;7.752;2024-03-25T01:56:01;6.70;82.30
25871;DHT22;13689;48.590;7.752;2024-03-25T01:58:27;6.70;82.30
25871;DHT22;13689;48.590;7.752;2024-03-25T02:00:53;6.70;82.30
25871;DHT22;13689;48.590;7.752;2024-03-25T02:03:20;6.70;82.20
25871;DHT22;13689;48.590;7.752;2024-03-25T02:05:45;6.60;82.10
25871;DHT22;13689;48.590;7.752;2024-03-25T02:08:11;6.60;82.10
25871;DHT22;13689;48.590;7.752;2024-03-25T02:10:37;6.60;82.30
25871;DHT22;13689;48.590;7.752;2024-03-25T02:13:03;6.50;82.20
25871;DHT22;13689;48.590;7.752;2024-03-25T02:15:28;6.50;82.50
25871;DHT22;13689;48.590;7.752;2024-03-25T02:17:54;6.50;82.60
25871;DHT22;13689;48.590;7.752;2024-03-25T02:20:20;6.50;82.80
25871;DHT22;13689;48.590;7.752;2024-03-25T02:22:45;6.50;82.80
25871;DHT22;13689;48.590;7.752;2024-03-25T02:25:11;6.40;82.80
25871;DHT22;13689;48.590;7.752;2024-03-25T02:27:37;6.40;82.80
25871;DHT22;13689;48.590;7.752;2024-03-25T02:30:04;6.40;82.90
25871;DHT22;13689;48.590;7.752;2024-03-25T02:32:31;6.40;83.10
25871;DHT22;13689;48.590;7.752;2024-03-25T02:34:56;6.40;83.00
25871;DHT22;13689;48.590;7.752;2024-03-25T02:37:22;6.40;82.80
25871;DHT22;13689;48.590;7.752;2024-03-25T02:39:48;6.40;83.10
25871;DHT22;13689;48.590;7.752;2024-03-25T02:42:14;6.40;83.10
25871;DHT22;13689;48.590;7.752;2024-03-25T02:44:39;6.40;82.80
25871;DHT22;13689;48.590;7.752;2024-03-25T02:47:08;6.40;83.10
25871;DHT22;13689;48.590;7.752;2024-03-25T02:49:34;6.40;83.10
25871;DHT22;13689;48.590;7.752;2024-03-25T02:52:01;6.40;83.20
25871;DHT22;13689;48.590;7.752;2024-03-25T02:54:26;6.40;83.20
25871;DHT22;13689;48.590;7.752;2024-03-25T02:56:52;6.40;83.20
25871;DHT22;13689;48.590;7.752;2024-03-25T02:59:17;6.40;83.30
25871;DHT22;13689;48.590;7.752;2024-03-25T03:01:43;6.40;83.40
25871;DHT22;13689;48.590;7.752;2024-03-25T03:04:08;6.40;83.50
25871;DHT22;13689;48.590;7.752;2024-03-25T03:06:34;6.40;83.50
25871;DHT22;13689;48.590;7.752;2024-03-25T03:08:59;6.40;83.30
25871;DHT22;13689;48.590;7.752;2024-03-25T03:11:25;6.40;83.50
25871;DHT22;13689;48.590;7.752;2024-03-25T03:13:50;6.40;83.50
25871;DHT22;13689;48.590;7.752;2024-03-25T03:16:16;6.30;83.60
25871;DHT22;13689;48.590;7.752;2024-03-25T03:18:41;6.30;83.50
25871;DHT22;13689;48.590;7.752;2024-03-25T03:21:07;6.30;83.80
25871;DHT22;13689;48.590;7.752;2024-03-25T03:23:32;6.30;84.00
25871;DHT22;13689;48.590;7.752;2024-03-25T03:25:58;6.30;84.00
25871;DHT22;13689;48.590;7.752;2024-03-25T03:28:25;6.30;84.10
25871;DHT22;13689;48.590;7.752;2024-03-25T03:30:50;6.30;84.00
25871;DHT22;13689;48.590;7.752;2024-03-25T03:33:16;6.30;84.10
25871;DHT22;13689;48.590;7.752;2024-03-25T03:35:42;6.30;84.00
25871;DHT22;13689;48.590;7.752;2024-03-25T03:38:07;6.30;84.00
25871;DHT22;13689;48.590;7.752;2024-03-25T03:40:33;6.40;84.00
25871;DHT22;13689;48.590;7.752;2024-03-25T03:42:58;6.40;84.00
25871;DHT22;13689;48.590;7.752;2024-03-25T03:45:24;6.40;84.00
25871;DHT22;13689;48.590;7.752;2024-03-25T03:47:50;6.40;84.10
25871;DHT22;13689;48.590;7.752;2024-03-25T03:50:15;6.40;84.10
25871;DHT22;13689;48.590;7.752;2024-03-25T03:52:41;6.40;84.20
25871;DHT22;13689;48.590;7.752;2024-03-25T03:55:06;6.50;84.20
25871;DHT22;13689;48.590;7.752;2024-03-25T03:57:32;6.50;84.10
25871;DHT22;13689;48.590;7.752;2024-03-25T03:59:58;6.50;84.10
25871;DHT22;13689;48.590;7.752;2024-03-25T04:02:24;6.50;84.20
25871;DHT22;13689;48.590;7.752;2024-03-25T04:04:50;6.50;84.20
25871;DHT22;13689;48.590;7.752;2024-03-25T04:07:16;6.50;84.30
25871;DHT22;13689;48.590;7.752;2024-03-25T04:09:41;6.50;84.10
25871;DHT22;13689;48.590;7.752;2024-03-25T04:12:07;6.50;84.50
25871;DHT22;13689;48.590;7.752;2024-03-25T04:14:32;6.40;84.50
25871;DHT22;13689;48.590;7.752;2024-03-25T04:16:58;6.50;84.60
25871;DHT22;13689;48.590;7.752;2024-03-25T04:19:24;6.50;84.70
25871;DHT22;13689;48.590;7.752;2024-03-25T04:21:50;6.50;85.00
25871;DHT22;13689;48.590;7.752;2024-03-25T04:24:15;6.50;85.00
25871;DHT22;13689;48.590;7.752;2024-03-25T04:26:41;6.50;84.80
25871;DHT22;13689;48.590;7.752;2024-03-25T04:29:06;6.50;85.00
25871;DHT22;13689;48.590;7.752;2024-03-25T04:31:31;6.50;85.00
25871;DHT22;13689;48.590;7.752;2024-03-25T04:33:57;6.50;85.00
25871;DHT22;13689;48.590;7.752;2024-03-25T04:36:22;6.50;85.10
25871;DHT22;13689;48.590;7.752;2024-03-25T04:38:48;6.50;85.10
25871;DHT22;13689;48.590;7.752;2024-03-25T04:41:13;6.50;85.10
25871;DHT22;13689;48.590;7.752;2024-03-25T04:43:39;6.60;85.30
25871;DHT22;13689;48.590;7.752;2024-03-25T04:46:04;6.60;85.10
25871;DHT22;13689;48.590;7.752;2024-03-25T04:48:30;6.60;85.10
25871;DHT22;13689;48.590;7.752;2024-03-25T04:50:55;6.60;85.10
25871;DHT22;13689;48.590;7.752;2024-03-25T04:53:22;6.60;85.10
25871;DHT22;13689;48.590;7.752;2024-03-25T04:55:47;6.60;85.10
25871;DHT22;13689;48.590;7.752;2024-03-25T04:58:13;6.60;85.30
25871;DHT22;13689;48.590;7.752;2024-03-25T05:00:38;6.60;85.10
25871;DHT22;13689;48.590;7.752;2024-03-25T05:03:04;6.60;85.20
25871;DHT22;13689;48.590;7.752;2024-03-25T05:05:30;6.60;85.10
25871;DHT22;13689;48.590;7.752;2024-03-25T05:07:55;6.60;85.30
25871;DHT22;13689;48.590;7.752;2024-03-25T05:10:21;6.60;85.30
25871;DHT22;13689;48.590;7.752;2024-03-25T05:12:46;6.60;85.30
25871;DHT22;13689;48.590;7.752;2024-03-25T05:15:14;6.60;85.30
25871;DHT22;13689;48.590;7.752;2024-03-25T05:17:40;6.60;85.30
25871;DHT22;13689;48.590;7.752;2024-03-25T05:20:06;6.60;85.30
25871;DHT22;13689;48.590;7.752;2024-03-25T05:22:31;6.60;85.50
25871;DHT22;13689;48.590;7.752;2024-03-25T05:24:57;6.60;85.50
25871;DHT22;13689;48.590;7.752;2024-03-25T05:27:23;6.60;85.50
25871;DHT22;13689;48.590;7.752;2024-03-25T05:29:51;6.60;85.50
25871;DHT22;13689;48.590;7.752;2024-03-25T05:32:16;6.60;85.60
25871;DHT22;13689;48.590;7.752;2024-03-25T05:34:42;6.60;85.60
25871;DHT22;13689;48.590;7.752;2024-03-25T05:37:08;6.60;85.60
25871;DHT22;13689;48.590;7.752;2024-03-25T05:39:33;6.60;85.70
25871;DHT22;13689;48.590;7.752;2024-03-25T05:41:59;6.60;85.60
25871;DHT22;13689;48.590;7.752;2024-03-25T05:44:24;6.60;85.40
25871;DHT22;13689;48.590;7.752;2024-03-25T05:46:50;6.60;85.60
25871;DHT22;13689;48.590;7.752;2024-03-25T05:49:15;6.70;85.70
25871;DHT22;13689;48.590;7.752;2024-03-25T05:51:41;6.70;85.60
25871;DHT22;13689;48.590;7.752;2024-03-25T05:54:06;6.70;85.50
25871;DHT22;13689;48.590;7.752;2024-03-25T05:56:32;6.70;85.60
25871;DHT22;13689;48.590;7.752;2024-03-25T05:58:57;6.80;85.70
25871;DHT22;13689;48.590;7.752;2024-03-25T06:01:23;6.80;85.50
25871;DHT22;13689;48.590;7.752;2024-03-25T06:03:49;6.80;85.50
25871;DHT22;13689;48.590;7.752;2024-03-25T06:06:14;6.80;85.50
25871;DHT22;13689;48.590;7.752;2024-03-25T06:08:40;6.80;85.50
25871;DHT22;13689;48.590;7.752;2024-03-25T06:11:05;6.90;85.70
25871;DHT22;13689;48.590;7.752;2024-03-25T06:13:30;6.90;85.70
25871;DHT22;13689;48.590;7.752;2024-03-25T06:15:56;7.00;85.70
25871;DHT22;13689;48.590;7.752;2024-03-25T06:18:21;7.00;85.50
25871;DHT22;13689;48.590;7.752;2024-03-25T06:20:47;7.00;85.30
25871;DHT22;13689;48.590;7.752;2024-03-25T06:23:28;7.10;85.40
25871;DHT22;13689;48.590;7.752;2024-03-25T06:25:54;7.00;85.40
25871;DHT22;13689;48.590;7.752;2024-03-25T06:28:20;7.00;85.40
25871;DHT22;13689;48.590;7.752;2024-03-25T06:30:46;7.10;85.50
25871;DHT22;13689;48.590;7.752;2024-03-25T06:33:31;7.10;85.40
25871;DHT22;13689;48.590;7.752;2024-03-25T06:36:15;7.20;85.40
25871;DHT22;13689;48.590;7.752;2024-03-25T06:38:41;7.20;85.30
25871;DHT22;13689;48.590;7.752;2024-03-25T06:41:06;7.30;85.20
25871;DHT22;13689;48.590;7.752;2024-03-25T06:43:32;7.30;85.00
25871;DHT22;13689;48.590;7.752;2024-03-25T06:45:57;7.30;85.10
25871;DHT22;13689;48.590;7.752;2024-03-25T06:48:23;7.30;85.10
25871;DHT22;13689;48.590;7.752;2024-03-25T06:50:52;7.40;85.00
25871;DHT22;13689;48.590;7.752;2024-03-25T06:53:18;7.40;85.00
25871;DHT22;13689;48.590;7.752;2024-03-25T06:55:50;7.40;84.90
25871;DHT22;13689;48.590;7.752;2024-03-25T06:58:15;7.40;84.60
25871;DHT22;13689;48.590;7.752;2024-03-25T07:00:41;7.50;84.90
25871;DHT22;13689;48.590;7.752;2024-03-25T07:03:06;7.50;84.80
25871;DHT22;13689;48.590;7.752;2024-03-25T07:05:32;7.60;84.70
25871;DHT22;13689;48.590;7.752;2024-03-25T07:07:57;7.70;84.70
25871;DHT22;13689;48.590;7.752;2024-03-25T07:10:23;7.70;84.60
25871;DHT22;13689;48.590;7.752;2024-03-25T07:12:48;7.80;84.60
25871;DHT22;13689;48.590;7.752;2024-03-25T07:15:14;8.00;84.30
25871;DHT22;13689;48.590;7.752;2024-03-25T07:17:39;8.10;84.30
25871;DHT22;13689;48.590;7.752;2024-03-25T07:20:05;8.10;84.10
25871;DHT22;13689;48.590;7.752;2024-03-25T07:22:33;8.20;83.90
25871;DHT22;13689;48.590;7.752;2024-03-25T07:24:58;8.30;83.80
25871;DHT22;13689;48.590;7.752;2024-03-25T07:27:24;8.40;83.70
25871;DHT22;13689;48.590;7.752;2024-03-25T07:29:50;8.50;83.50
25871;DHT22;13689;48.590;7.752;2024-03-25T07:32:16;9.10;83.70
25871;DHT22;13689;48.590;7.752;2024-03-25T07:34:42;10.00;84.00
25871;DHT22;13689;48.590;7.752;2024-03-25T07:37:07;10.90;83.10
25871;DHT22;13689;48.590;7.752;2024-03-25T07:39:33;11.70;81.60
25871;DHT22;13689;48.590;7.752;2024-03-25T07:41:58;12.20;79.90
25871;DHT22;13689;48.590;7.752;2024-03-25T07:44:24;12.00;78.40
25871;DHT22;13689;48.590;7.752;2024-03-25T07:46:50;11.50;78.50
25871;DHT22;13689;48.590;7.752;2024-03-25T07:49:15;11.00;79.10
25871;DHT22;13689;48.590;7.752;2024-03-25T07:51:41;10.60;79.90
25871;DHT22;13689;48.590;7.752;2024-03-25T07:54:07;10.30;80.50
25871;DHT22;13689;48.590;7.752;2024-03-25T07:56:35;10.30;80.90
25871;DHT22;13689;48.590;7.752;2024-03-25T07:59:02;11.20;81.40
25871;DHT22;13689;48.590;7.752;2024-03-25T08:01:33;11.60;79.90
25871;DHT22;13689;48.590;7.752;2024-03-25T08:03:59;11.20;78.90
25871;DHT22;13689;48.590;7.752;2024-03-25T08:06:24;10.90;79.00
25871;DHT22;13689;48.590;7.752;2024-03-25T08:08:50;10.60;79.40
25871;DHT22;13689;48.590;7.752;2024-03-25T08:11:15;10.50;80.10
25871;DHT22;13689;48.590;7.752;2024-03-25T08:13:40;10.40;80.20
25871;DHT22;13689;48.590;7.752;2024-03-25T08:16:06;10.40;79.90
25871;DHT22;13689;48.590;7.752;2024-03-25T08:18:32;11.20;79.70
25871;DHT22;13689;48.590;7.752;2024-03-25T08:20:57;13.50;76.80
25871;DHT22;13689;48.590;7.752;2024-03-25T08:23:23;15.40;70.20
25871;DHT22;13689;48.590;7.752;2024-03-25T08:25:48;16.90;66.40
25871;DHT22;13689;48.590;7.752;2024-03-25T08:28:14;17.90;60.50
25871;DHT22;13689;48.590;7.752;2024-03-25T08:30:39;18.10;58.50
25871;DHT22;13689;48.590;7.752;2024-03-25T08:33:05;18.60;58.30
25871;DHT22;13689;48.590;7.752;2024-03-25T08:35:31;18.80;56.80
25871;DHT22;13689;48.590;7.752;2024-03-25T08:37:56;18.90;57.10
25871;DHT22;13689;48.590;7.752;2024-03-25T08:40:22;19.10;57.80
25871;DHT22;13689;48.590;7.752;2024-03-25T08:42:47;19.30;57.60
25871;DHT22;13689;48.590;7.752;2024-03-25T08:45:13;19.50;57.40
25871;DHT22;13689;48.590;7.752;2024-03-25T08:47:38;19.80;57.00
25871;DHT22;13689;48.590;7.752;2024-03-25T08:50:06;20.10;56.80
25871;DHT22;13689;48.590;7.752;2024-03-25T08:52:32;20.20;56.40
25871;DHT22;13689;48.590;7.752;2024-03-25T08:54:57;20.40;55.90
25871;DHT22;13689;48.590;7.752;2024-03-25T08:57:23;20.50;55.70
25871;DHT22;13689;48.590;7.752;2024-03-25T08:59:48;20.60;55.30
25871;DHT22;13689;48.590;7.752;2024-03-25T09:02:13;20.60;55.20
25871;DHT22;13689;48.590;7.752;2024-03-25T09:04:39;20.70;55.50
25871;DHT22;13689;48.590;7.752;2024-03-25T09:07:05;20.80;55.70
25871;DHT22;13689;48.590;7.752;2024-03-25T09:09:30;20.80;55.70
25871;DHT22;13689;48.590;7.752;2024-03-25T09:12:14;20.80;55.70
25871;DHT22;13689;48.590;7.752;2024-03-25T09:14:40;20.70;55.80
25871;DHT22;13689;48.590;7.752;2024-03-25T09:17:05;20.70;55.80
25871;DHT22;13689;48.590;7.752;2024-03-25T09:19:31;20.60;56.10
25871;DHT22;13689;48.590;7.752;2024-03-25T09:21:56;20.70;56.30
25871;DHT22;13689;48.590;7.752;2024-03-25T09:24:22;20.80;56.10
25871;DHT22;13689;48.590;7.752;2024-03-25T09:26:49;20.70;56.00
25871;DHT22;13689;48.590;7.752;2024-03-25T09:29:15;20.60;56.30
25871;DHT22;13689;48.590;7.752;2024-03-25T09:31:40;20.40;56.30
25871;DHT22;13689;48.590;7.752;2024-03-25T09:34:06;20.30;56.50
25871;DHT22;13689;48.590;7.752;2024-03-25T09:36:31;19.90;55.80
25871;DHT22;13689;48.590;7.752;2024-03-25T09:38:57;19.70;56.40
25871;DHT22;13689;48.590;7.752;2024-03-25T09:41:22;19.90;56.70
25871;DHT22;13689;48.590;7.752;2024-03-25T09:43:48;20.00;56.30
25871;DHT22;13689;48.590;7.752;2024-03-25T09:46:17;20.00;56.30
25871;DHT22;13689;48.590;7.752;2024-03-25T09:48:42;20.00;55.60
25871;DHT22;13689;48.590;7.752;2024-03-25T09:51:10;20.00;55.50
25871;DHT22;13689;48.590;7.752;2024-03-25T09:53:36;19.90;56.00
25871;DHT22;13689;48.590;7.752;2024-03-25T09:56:02;19.90;55.60
25871;DHT22;13689;48.590;7.752;2024-03-25T09:58:27;19.80;55.90
25871;DHT22;13689;48.590;7.752;2024-03-25T10:00:53;19.90;55.80
25871;DHT22;13689;48.590;7.752;2024-03-25T10:03:20;19.80;55.20
25871;DHT22;13689;48.590;7.752;2024-03-25T10:05:46;19.80;55.30
25871;DHT22;13689;48.590;7.752;2024-03-25T10:08:11;19.90;55.10
25871;DHT22;13689;48.590;7.752;2024-03-25T10:10:37;19.70;54.50
25871;DHT22;13689;48.590;7.752;2024-03-25T10:13:05;19.60;54.30
25871;DHT22;13689;48.590;7.752;2024-03-25T10:15:32;19.60;54.00
25871;DHT22;13689;48.590;7.752;2024-03-25T10:17:57;19.80;54.20
25871;DHT22;13689;48.590;7.752;2024-03-25T10:20:23;20.10;53.70
25871;DHT22;13689;48.590;7.752;2024-03-25T10:22:49;20.30;53.30
25871;DHT22;13689;48.590;7.752;2024-03-25T10:27:52;20.70;52.30
25871;DHT22;13689;48.590;7.752;2024-03-25T10:30:19;20.90;52.20
25871;DHT22;13689;48.590;7.752;2024-03-25T10:32:44;20.90;49.10
25871;DHT22;13689;48.590;7.752;2024-03-25T10:35:10;20.90;49.30
25871;DHT22;13689;48.590;7.752;2024-03-25T10:37:35;20.70;49.10
25871;DHT22;13689;48.590;7.752;2024-03-25T10:40:01;20.90;49.70
25871;DHT22;13689;48.590;7.752;2024-03-25T10:42:29;21.20;49.00
25871;DHT22;13689;48.590;7.752;2024-03-25T10:44:56;20.90;47.60
25871;DHT22;13689;48.590;7.752;2024-03-25T10:47:24;20.90;47.80
25871;DHT22;13689;48.590;7.752;2024-03-25T10:49:55;20.10;40.70
25871;DHT22;13689;48.590;7.752;2024-03-25T10:52:21;18.70;40.80
25871;DHT22;13689;48.590;7.752;2024-03-25T10:54:47;17.50;41.60
25871;DHT22;13689;48.590;7.752;2024-03-25T10:57:13;16.40;42.20
25871;DHT22;13689;48.590;7.752;2024-03-25T10:59:39;15.60;43.30
25871;DHT22;13689;48.590;7.752;2024-03-25T11:02:09;15.30;44.20
25871;DHT22;13689;48.590;7.752;2024-03-25T11:04:35;15.20;44.70
25871;DHT22;13689;48.590;7.752;2024-03-25T11:07:14;15.10;44.80
25871;DHT22;13689;48.590;7.752;2024-03-25T11:09:40;15.00;44.90
25871;DHT22;13689;48.590;7.752;2024-03-25T11:12:05;14.90;45.00
25871;DHT22;13689;48.590;7.752;2024-03-25T11:14:31;14.70;44.50
25871;DHT22;13689;48.590;7.752;2024-03-25T11:16:57;14.40;44.90
25871;DHT22;13689;48.590;7.752;2024-03-25T11:19:26;14.30;45.50
25871;DHT22;13689;48.590;7.752;2024-03-25T11:21:52;14.40;45.80
25871;DHT22;13689;48.590;7.752;2024-03-25T11:24:27;14.40;45.80
25871;DHT22;13689;48.590;7.752;2024-03-25T11:26:53;14.30;45.70
25871;DHT22;13689;48.590;7.752;2024-03-25T11:29:19;14.10;45.90
25871;DHT22;13689;48.590;7.752;2024-03-25T11:31:44;14.00;46.20
25871;DHT22;13689;48.590;7.752;2024-03-25T11:34:10;14.00;46.40
25871;DHT22;13689;48.590;7.752;2024-03-25T11:36:35;14.00;46.50
25871;DHT22;13689;48.590;7.752;2024-03-25T11:39:01;13.90;46.60
25871;DHT22;13689;48.590;7.752;2024-03-25T11:41:32;13.90;46.70
25871;DHT22;13689;48.590;7.752;2024-03-25T11:43:59;13.90;46.80
25871;DHT22;13689;48.590;7.752;2024-03-25T11:46:24;13.80;47.00
25871;DHT22;13689;48.590;7.752;2024-03-25T11:48:50;13.70;47.10
25871;DHT22;13689;48.590;7.752;2024-03-25T11:51:16;13.70;47.40
25871;DHT22;13689;48.590;7.752;2024-03-25T11:53:42;13.60;47.40
25871;DHT22;13689;48.590;7.752;2024-03-25T11:56:07;13.70;47.50
25871;DHT22;13689;48.590;7.752;2024-03-25T11:58:33;13.70;47.80
25871;DHT22;13689;48.590;7.752;2024-03-25T12:00:59;13.60;46.60
25871;DHT22;13689;48.590;7.752;2024-03-25T12:03:24;13.50;46.90
25871;DHT22;13689;48.590;7.752;2024-03-25T12:05:50;13.60;47.20
25871;DHT22;13689;48.590;7.752;2024-03-25T12:08:15;13.70;47.30
25871;DHT22;13689;48.590;7.752;2024-03-25T12:10:41;13.70;46.80
25871;DHT22;13689;48.590;7.752;2024-03-25T12:13:25;13.60;46.60
25871;DHT22;13689;48.590;7.752;2024-03-25T12:15:51;13.70;46.70
25871;DHT22;13689;48.590;7.752;2024-03-25T12:18:17;13.80;46.80
25871;DHT22;13689;48.590;7.752;2024-03-25T12:20:47;13.80;46.30
25871;DHT22;13689;48.590;7.752;2024-03-25T12:23:13;13.70;46.40
25871;DHT22;13689;48.590;7.752;2024-03-25T12:25:38;13.60;46.50
25871;DHT22;13689;48.590;7.752;2024-03-25T12:28:10;13.60;46.90
25871;DHT22;13689;48.590;7.752;2024-03-25T12:30:48;13.60;46.90
25871;DHT22;13689;48.590;7.752;2024-03-25T12:33:14;13.60;46.90
25871;DHT22;13689;48.590;7.752;2024-03-25T12:35:39;13.60;47.10
25871;DHT22;13689;48.590;7.752;2024-03-25T12:38:05;13.60;47.10
25871;DHT22;13689;48.590;7.752;2024-03-25T12:40:31;13.60;47.20
25871;DHT22;13689;48.590;7.752;2024-03-25T12:42:56;13.70;47.30
25871;DHT22;13689;48.590;7.752;2024-03-25T12:45:22;13.70;47.30
25871;DHT22;13689;48.590;7.752;2024-03-25T12:47:48;13.80;47.20
25871;DHT22;13689;48.590;7.752;2024-03-25T12:50:14;13.70;47.30
25871;DHT22;13689;48.590;7.752;2024-03-25T12:52:39;13.70;47.40
25871;DHT22;13689;48.590;7.752;2024-03-25T12:55:05;13.70;47.00
25871;DHT22;13689;48.590;7.752;2024-03-25T12:57:30;13.60;46.80
25871;DHT22;13689;48.590;7.752;2024-03-25T12:59:56;13.60;46.80
25871;DHT22;13689;48.590;7.752;2024-03-25T13:02:21;13.60;46.80
25871;DHT22;13689;48.590;7.752;2024-03-25T13:04:47;13.70;46.90
25871;DHT22;13689;48.590;7.752;2024-03-25T13:07:12;13.60;46.80
25871;DHT22;13689;48.590;7.752;2024-03-25T13:09:38;13.70;46.90
25871;DHT22;13689;48.590;7.752;2024-03-25T13:12:04;13.70;46.50
25871;DHT22;13689;48.590;7.752;2024-03-25T13:14:29;13.80;46.40
25871;DHT22;13689;48.590;7.752;2024-03-25T13:16:55;13.90;46.40
25871;DHT22;13689;48.590;7.752;2024-03-25T13:19:20;13.90;46.40
25871;DHT22;13689;48.590;7.752;2024-03-25T13:21:46;13.90;46.00
25871;DHT22;13689;48.590;7.752;2024-03-25T13:24:13;13.90;46.20
25871;DHT22;13689;48.590;7.752;2024-03-25T13:26:38;13.80;45.90
25871;DHT22;13689;48.590;7.752;2024-03-25T13:29:04;13.80;46.10
25871;DHT22;13689;48.590;7.752;2024-03-25T13:31:30;13.80;46.30
25871;DHT22;13689;48.590;7.752;2024-03-25T13:33:56;13.80;46.40
25871;DHT22;13689;48.590;7.752;2024-03-25T13:36:21;13.80;46.40
25871;DHT22;13689;48.590;7.752;2024-03-25T13:38:47;13.80;45.80
25871;DHT22;13689;48.590;7.752;2024-03-25T13:41:17;13.80;46.00
25871;DHT22;13689;48.590;7.752;2024-03-25T13:43:47;13.80;46.00
25871;DHT22;13689;48.590;7.752;2024-03-25T13:46:12;13.80;46.00
25871;DHT22;13689;48.590;7.752;2024-03-25T13:48:38;13.80;46.10
25871;DHT22;13689;48.590;7.752;2024-03-25T13:51:04;13.80;46.00
25871;DHT22;13689;48.590;7.752;2024-03-25T13:53:29;13.90;46.10
25871;DHT22;13689;48.590;7.752;2024-03-25T13:55:55;13.90;46.20
25871;DHT22;13689;48.590;7.752;2024-03-25T13:58:20;14.00;46.10
25871;DHT22;13689;48.590;7.752;2024-03-25T14:00:46;14.00;45.60
25871;DHT22;13689;48.590;7.752;2024-03-25T14:03:11;14.00;45.70
25871;DHT22;13689;48.590;7.752;2024-03-25T14:05:37;14.00;45.50
25871;DHT22;13689;48.590;7.752;2024-03-25T14:08:02;14.00;44.10
25871;DHT22;13689;48.590;7.752;2024-03-25T14:10:28;14.00;43.90
25871;DHT22;13689;48.590;7.752;2024-03-25T14:12:55;14.10;43.90
25871;DHT22;13689;48.590;7.752;2024-03-25T14:15:20;14.10;43.60
25871;DHT22;13689;48.590;7.752;2024-03-25T14:17:46;14.10;43.80
25871;DHT22;13689;48.590;7.752;2024-03-25T14:20:11;14.20;43.80
25871;DHT22;13689;48.590;7.752;2024-03-25T14:22:37;14.20;43.10
25871;DHT22;13689;48.590;7.752;2024-03-25T14:25:02;14.20;43.20
25871;DHT22;13689;48.590;7.752;2024-03-25T14:27:28;14.20;43.30
25871;DHT22;13689;48.590;7.752;2024-03-25T14:29:53;14.20;42.70
25871;DHT22;13689;48.590;7.752;2024-03-25T14:32:19;14.20;42.50
25871;DHT22;13689;48.590;7.752;2024-03-25T14:34:45;14.20;42.80
25871;DHT22;13689;48.590;7.752;2024-03-25T14:37:11;14.20;42.90
25871;DHT22;13689;48.590;7.752;2024-03-25T14:39:36;14.20;42.40
25871;DHT22;13689;48.590;7.752;2024-03-25T14:42:02;14.20;42.40
25871;DHT22;13689;48.590;7.752;2024-03-25T14:44:29;14.20;42.50
25871;DHT22;13689;48.590;7.752;2024-03-25T14:46:54;14.20;42.20
25871;DHT22;13689;48.590;7.752;2024-03-25T14:49:20;14.20;41.40
25871;DHT22;13689;48.590;7.752;2024-03-25T14:51:45;14.20;41.60
25871;DHT22;13689;48.590;7.752;2024-03-25T14:54:11;14.20;41.80
25871;DHT22;13689;48.590;7.752;2024-03-25T14:56:36;14.20;41.80
25871;DHT22;13689;48.590;7.752;2024-03-25T14:59:02;14.20;41.40
25871;DHT22;13689;48.590;7.752;2024-03-25T15:01:27;14.20;41.40
25871;DHT22;13689;48.590;7.752;2024-03-25T15:03:53;14.20;41.70
25871;DHT22;13689;48.590;7.752;2024-03-25T15:06:19;14.20;41.50
25871;DHT22;13689;48.590;7.752;2024-03-25T15:08:44;14.10;41.60
25871;DHT22;13689;48.590;7.752;2024-03-25T15:11:10;14.10;41.70
25871;DHT22;13689;48.590;7.752;2024-03-25T15:13:36;14.20;42.00
25871;DHT22;13689;48.590;7.752;2024-03-25T15:16:04;14.20;42.10
25871;DHT22;13689;48.590;7.752;2024-03-25T15:18:30;14.20;42.10
25871;DHT22;13689;48.590;7.752;2024-03-25T15:20:59;14.20;42.10
25871;DHT22;13689;48.590;7.752;2024-03-25T15:23:25;14.20;42.20
25871;DHT22;13689;48.590;7.752;2024-03-25T15:25:50;14.10;42.20
25871;DHT22;13689;48.590;7.752;2024-03-25T15:28:15;14.10;42.40
25871;DHT22;13689;48.590;7.752;2024-03-25T15:30:41;14.10;42.60
25871;DHT22;13689;48.590;7.752;2024-03-25T15:33:06;14.10;42.60